createdAt,value
2022-11-19T00:02:07.831Z,31.20
2022-11-19T00:04:35.790Z,24.65
2022-11-19T00:07:03.978Z,27.15
2022-11-19T00:09:33.001Z,26.17
2022-11-19T00:12:19.095Z,29.67
2022-11-19T00:14:49.205Z,26.15
2022-11-19T00:17:20.481Z,27.13
2022-11-19T00:19:48.210Z,23.30
2022-11-19T00:24:56.876Z,26.25
2022-11-19T00:27:24.107Z,27.55
2022-11-19T00:29:53.284Z,25.92
2022-11-19T00:32:20.838Z,25.48
2022-11-19T00:34:48.114Z,26.98
2022-11-19T00:37:15.881Z,29.30
2022-11-19T00:39:42.894Z,27.35
2022-11-19T00:42:14.463Z,29.67
2022-11-19T00:44:47.814Z,31.13
2022-11-19T00:47:16.478Z,25.05
2022-11-19T00:49:46.961Z,25.42
2022-11-19T00:52:14.389Z,33.35
2022-11-19T00:54:41.697Z,31.98
2022-11-19T00:57:10.199Z,32.17
2022-11-19T00:59:40.348Z,31.17
2022-11-19T01:02:10.406Z,29.65
2022-11-19T01:04:38.286Z,30.85
2022-11-19T01:07:05.588Z,28.17
2022-11-19T01:09:33.117Z,30.50
2022-11-19T01:12:01.171Z,36.92
2022-11-19T01:14:31.224Z,31.27
2022-11-19T01:16:58.594Z,34.10
2022-11-19T01:19:26.037Z,30.38
2022-11-19T01:21:53.138Z,31.50
2022-11-19T01:24:21.545Z,33.92
2022-11-19T01:26:49.049Z,28.65
2022-11-19T01:29:17.435Z,28.88
2022-11-19T01:31:46.328Z,31.73
2022-11-19T01:34:13.943Z,38.45
2022-11-19T01:36:41.585Z,32.33
2022-11-19T01:39:09.919Z,32.35
2022-11-19T01:41:37.656Z,30.08
2022-11-19T01:44:07.488Z,28.45
2022-11-19T01:46:38.115Z,31.75
2022-11-19T01:49:14.804Z,28.77
2022-11-19T01:52:01.224Z,31.00
2022-11-19T01:54:35.877Z,29.50
2022-11-19T01:57:11.674Z,30.60
2022-11-19T01:59:41.379Z,27.95
2022-11-19T02:02:08.965Z,27.65
2022-11-19T02:04:36.993Z,34.22
2022-11-19T02:07:04.993Z,31.95
2022-11-19T02:09:33.772Z,29.60
2022-11-19T02:12:25.365Z,32.45
2022-11-19T02:18:21.329Z,29.92
2022-11-19T02:21:09.037Z,28.60
2022-11-19T02:23:51.851Z,27.40
2022-11-19T02:29:57.242Z,27.40
2022-11-19T02:32:32.029Z,27.10
2022-11-19T02:35:19.537Z,24.67
2022-11-19T02:38:05.250Z,27.38
2022-11-19T02:40:44.154Z,27.30
2022-11-19T02:43:20.774Z,29.27
2022-11-19T02:46:21.578Z,26.02
2022-11-19T02:48:53.460Z,28.38
2022-11-19T02:51:23.960Z,36.50
2022-11-19T02:53:55.037Z,40.28
2022-11-19T02:57:07.150Z,30.63
2022-11-19T03:00:15.873Z,31.38
2022-11-19T03:03:12.192Z,34.83
2022-11-19T03:05:45.660Z,31.92
2022-11-19T03:08:13.324Z,37.00
2022-11-19T03:23:57.106Z,36.03
2022-11-19T03:26:48.708Z,36.30
2022-11-19T03:29:20.160Z,34.70
2022-11-19T03:31:52.380Z,38.03
2022-11-19T03:34:23.985Z,36.10
2022-11-19T03:36:59.439Z,38.10
2022-11-19T03:39:28.938Z,32.83
2022-11-19T03:41:58.112Z,39.20
2022-11-19T03:44:46.642Z,34.88
2022-11-19T03:50:09.345Z,35.42
2022-11-19T03:52:38.129Z,38.17
2022-11-19T03:55:36.883Z,41.03
2022-11-19T03:58:07.233Z,33.83
2022-11-19T04:00:37.598Z,35.35
2022-11-19T04:03:08.043Z,44.10
2022-11-19T04:05:35.843Z,35.67
2022-11-19T04:08:04.460Z,34.95
2022-11-19T04:10:31.851Z,35.10
2022-11-19T04:13:00.598Z,39.28
2022-11-19T04:15:28.606Z,30.75
2022-11-19T04:17:56.280Z,37.40
2022-11-19T04:20:24.609Z,37.08
2022-11-19T04:22:52.691Z,36.78
2022-11-19T04:25:25.748Z,35.20
2022-11-19T04:27:56.326Z,37.75
2022-11-19T04:33:07.601Z,34.88
2022-11-19T04:35:36.325Z,32.35
2022-11-19T04:40:47.462Z,30.75
2022-11-19T04:43:15.392Z,32.00
2022-11-19T04:45:43.706Z,30.27
2022-11-19T04:48:20.210Z,30.25
2022-11-19T04:50:51.353Z,33.25
2022-11-19T04:53:22.492Z,33.30
2022-11-19T04:55:50.916Z,32.38
2022-11-19T04:58:20.916Z,34.42
2022-11-19T05:00:52.197Z,32.47
2022-11-19T05:03:20.845Z,30.63
2022-11-19T05:05:48.947Z,31.38
2022-11-19T05:08:35.964Z,25.13
2022-11-19T05:11:03.254Z,22.83
2022-11-19T05:13:30.873Z,19.45
2022-11-19T05:16:00.760Z,19.35
2022-11-19T05:18:28.537Z,17.00
2022-11-19T05:20:57.438Z,15.82
2022-11-19T05:23:25.878Z,18.85
2022-11-19T05:25:57.268Z,18.38
2022-11-19T05:28:39.044Z,18.93
2022-11-19T05:31:08.098Z,17.50
2022-11-19T05:33:47.786Z,17.33
2022-11-19T05:36:20.471Z,18.98
2022-11-19T05:38:48.310Z,21.65
2022-11-19T05:41:18.998Z,19.17
2022-11-19T05:43:47.021Z,20.05
2022-11-19T05:46:15.127Z,21.52
2022-11-19T05:48:42.409Z,20.08
2022-11-19T05:51:21.393Z,18.27
2022-11-19T05:53:54.077Z,18.30
2022-11-19T05:56:25.005Z,18.27
2022-11-19T05:58:54.562Z,17.63
2022-11-19T06:01:32.735Z,19.25
2022-11-19T06:04:03.708Z,18.50
2022-11-19T06:06:31.647Z,17.05
2022-11-19T06:09:00.557Z,18.05
2022-11-19T06:11:47.293Z,16.77
2022-11-19T06:14:39.240Z,16.25
2022-11-19T06:17:09.770Z,17.88
2022-11-19T06:19:37.511Z,17.00
2022-11-19T06:22:05.617Z,18.83
2022-11-19T06:24:36.999Z,13.80
2022-11-19T06:27:08.833Z,14.77
2022-11-19T06:29:39.722Z,12.98
2022-11-19T06:32:10.957Z,14.15
2022-11-19T06:34:38.738Z,14.20
2022-11-19T06:37:06.823Z,12.43
2022-11-19T06:39:36.203Z,13.48
2022-11-19T06:42:23.358Z,10.20
2022-11-19T06:44:54.890Z,12.10
2022-11-19T06:47:25.033Z,8.15
2022-11-19T06:49:53.688Z,10.77
2022-11-19T06:52:24.133Z,10.73
2022-11-19T06:54:51.434Z,11.88
2022-11-19T06:57:19.613Z,12.15
2022-11-19T06:59:47.731Z,10.80
2022-11-19T07:02:20.263Z,9.90
2022-11-19T07:04:48.962Z,10.25
2022-11-19T07:07:16.548Z,12.20
2022-11-19T07:09:48.636Z,14.60
2022-11-19T07:12:24.160Z,13.05
2022-11-19T07:14:54.281Z,11.88
2022-11-19T07:17:23.441Z,11.13
2022-11-19T07:19:50.715Z,9.30
2022-11-19T07:22:18.810Z,9.68
2022-11-19T07:27:28.869Z,8.05
2022-11-19T07:30:08.338Z,10.48
2022-11-19T07:32:44.560Z,8.63
2022-11-19T07:35:14.494Z,7.97
2022-11-19T07:40:56.282Z,9.50
2022-11-19T07:43:24.348Z,10.00
2022-11-19T07:46:09.112Z,8.95
2022-11-19T07:48:47.251Z,9.02
2022-11-19T07:51:48.102Z,12.50
2022-11-19T07:54:21.539Z,12.50
2022-11-19T07:57:05.604Z,12.13
2022-11-19T08:02:16.033Z,15.77
2022-11-19T08:04:48.585Z,14.25
2022-11-19T08:10:17.683Z,14.35
2022-11-19T08:13:04.281Z,16.25
2022-11-19T08:15:34.931Z,17.40
2022-11-19T08:18:16.594Z,16.88
2022-11-19T08:20:46.453Z,15.83
2022-11-19T08:23:31.306Z,14.77
2022-11-19T08:26:00.590Z,16.70
2022-11-19T08:28:29.990Z,14.85
2022-11-19T08:31:07.021Z,17.15
2022-11-19T08:36:32.578Z,15.68
2022-11-19T08:39:04.229Z,19.50
2022-11-19T08:41:50.168Z,19.73
2022-11-19T08:44:18.441Z,19.92
2022-11-19T08:46:45.511Z,23.05
2022-11-19T08:49:13.104Z,23.20
2022-11-19T08:51:40.513Z,29.13
2022-11-19T08:54:07.930Z,23.27
2022-11-19T08:56:35.385Z,25.60
2022-11-19T08:59:03.411Z,27.40
2022-11-19T09:01:31.440Z,29.25
2022-11-19T09:03:58.702Z,29.70
2022-11-19T09:06:25.895Z,31.20
2022-11-19T09:08:53.199Z,30.10
2022-11-19T09:11:22.703Z,30.88
2022-11-19T09:13:50.149Z,31.00
2022-11-19T09:16:19.215Z,34.20
2022-11-19T09:18:47.015Z,38.08
2022-11-19T09:21:14.365Z,36.83
2022-11-19T09:23:42.616Z,32.88
2022-11-19T09:26:13.875Z,37.92
2022-11-19T09:28:41.670Z,36.17
2022-11-19T09:31:12.009Z,34.45
2022-11-19T09:33:44.733Z,33.05
2022-11-19T09:36:13.315Z,35.92
2022-11-19T09:38:41.535Z,32.22
2022-11-19T09:41:34.951Z,34.10
2022-11-19T09:44:35.817Z,31.33
2022-11-19T09:47:12.837Z,35.15
2022-11-19T09:49:53.959Z,33.97
2022-11-19T09:52:25.499Z,37.03
2022-11-19T09:54:55.767Z,35.50
2022-11-19T09:57:39.466Z,40.80
2022-11-19T10:00:08.442Z,36.17
2022-11-19T10:02:41.359Z,35.20
2022-11-19T10:05:14.913Z,34.72
2022-11-19T10:07:52.489Z,31.73
2022-11-19T10:10:44.220Z,34.45
2022-11-19T10:13:31.735Z,56.85
2022-11-19T10:16:23.049Z,39.08
2022-11-19T10:19:13.369Z,35.03
2022-11-19T10:21:46.432Z,35.25
2022-11-19T10:24:22.114Z,31.30
2022-11-19T10:27:05.794Z,29.90
2022-11-19T10:29:38.462Z,33.22
2022-11-19T10:32:21.464Z,35.90
2022-11-19T10:34:51.774Z,36.20
2022-11-19T10:37:22.705Z,33.03
2022-11-19T10:39:58.677Z,36.72
2022-11-19T10:42:28.801Z,33.70
2022-11-19T10:45:03.940Z,41.83
2022-11-19T10:47:43.643Z,50.25
2022-11-19T10:50:24.572Z,43.33
2022-11-19T10:53:18.429Z,38.67
2022-11-19T10:55:54.546Z,38.38
2022-11-19T10:58:45.965Z,31.63
2022-11-19T11:01:33.339Z,34.30
2022-11-19T11:04:06.467Z,32.83
2022-11-19T11:06:51.916Z,34.17
2022-11-19T11:09:36.712Z,38.15
2022-11-19T11:12:32.298Z,33.45
2022-11-19T11:15:12.867Z,35.75
2022-11-19T11:17:42.602Z,33.92
2022-11-19T11:20:18.177Z,34.88
2022-11-19T11:22:48.592Z,38.78
2022-11-19T11:25:29.902Z,34.80
2022-11-19T11:28:11.175Z,38.28
2022-11-19T11:30:42.147Z,36.45
2022-11-19T11:33:31.628Z,39.92
2022-11-19T11:36:06.660Z,41.95
2022-11-19T11:38:41.484Z,42.38
2022-11-19T11:42:03.347Z,38.53
2022-11-19T11:44:07.257Z,38.45
2022-11-19T11:46:50.646Z,39.00
2022-11-19T11:49:26.609Z,38.50
2022-11-19T11:52:07.041Z,39.83
2022-11-19T11:54:34.422Z,38.78
2022-11-19T11:57:23.331Z,36.28
2022-11-19T11:59:50.297Z,37.22
2022-11-19T12:02:32.812Z,37.63
2022-11-19T12:05:03.962Z,36.60
2022-11-19T12:07:43.088Z,39.88
2022-11-19T12:10:29.808Z,48.08
2022-11-19T12:13:12.197Z,54.70
2022-11-19T12:18:37.253Z,47.95
2022-11-19T12:21:12.324Z,47.97
2022-11-19T12:24:07.329Z,44.90
2022-11-19T12:27:04.663Z,46.05
2022-11-19T12:30:00.409Z,46.45
2022-11-19T12:32:30.505Z,45.58
2022-11-19T12:35:10.549Z,43.63
2022-11-19T12:37:43.178Z,43.28
2022-11-19T12:40:32.339Z,43.47
2022-11-19T12:43:24.471Z,48.47
2022-11-19T12:46:02.413Z,48.35
2022-11-19T12:48:54.166Z,49.15
2022-11-19T12:51:23.324Z,51.03
2022-11-19T12:54:31.716Z,50.17
2022-11-19T12:57:31.526Z,49.60
2022-11-19T13:00:29.154Z,55.55
2022-11-19T13:03:15.025Z,54.67
2022-11-19T13:05:57.676Z,50.67
2022-11-19T13:08:30.441Z,48.47
2022-11-19T13:11:08.464Z,54.28
2022-11-19T13:13:39.925Z,55.80
2022-11-19T13:16:17.123Z,54.20
2022-11-19T13:18:48.240Z,52.30
2022-11-19T13:21:35.436Z,48.08
2022-11-19T13:24:26.050Z,50.92
2022-11-19T13:26:55.701Z,51.22
2022-11-19T13:29:34.375Z,51.60
2022-11-19T13:32:10.358Z,48.50
2022-11-19T13:35:01.992Z,51.72
2022-11-19T13:37:48.035Z,48.87
2022-11-19T13:40:39.486Z,55.58
2022-11-19T13:43:36.354Z,48.10
2022-11-19T13:46:21.525Z,48.85
2022-11-19T13:49:01.618Z,54.55
2022-11-19T13:52:03.736Z,51.78
2022-11-19T13:54:36.695Z,57.30
2022-11-19T13:57:05.792Z,54.65
2022-11-19T13:59:47.360Z,48.83
2022-11-19T14:02:41.703Z,55.05
2022-11-19T14:05:41.226Z,55.42
2022-11-19T14:08:34.149Z,61.08
2022-11-19T14:11:01.185Z,53.05
2022-11-19T14:14:05.407Z,54.63
2022-11-19T14:17:07.593Z,52.72
2022-11-19T14:20:11.880Z,56.67
2022-11-19T14:23:01.167Z,48.17
2022-11-19T14:26:02.254Z,55.38
2022-11-19T14:28:45.369Z,51.90
2022-11-19T14:31:16.300Z,48.70
2022-11-19T14:33:49.032Z,51.28
2022-11-19T14:36:21.550Z,54.42
2022-11-19T14:38:55.841Z,61.40
2022-11-19T14:41:33.740Z,51.05
2022-11-19T14:44:27.361Z,55.05
2022-11-19T14:46:54.453Z,55.92
2022-11-19T14:49:25.943Z,58.15
2022-11-19T14:51:56.177Z,53.75
2022-11-19T14:54:33.431Z,52.13
2022-11-19T14:57:21.440Z,58.10
2022-11-19T14:59:52.329Z,51.20
2022-11-19T15:02:37.045Z,55.13
2022-11-19T15:05:13.655Z,57.22
2022-11-19T15:07:52.734Z,63.63
2022-11-19T15:10:33.270Z,54.80
2022-11-19T15:13:20.178Z,55.85
2022-11-19T15:15:52.989Z,51.58
2022-11-19T15:18:41.404Z,57.55
2022-11-19T15:21:27.089Z,59.25
2022-11-19T15:24:06.068Z,57.67
2022-11-19T15:26:54.299Z,59.33
2022-11-19T15:29:45.567Z,68.47
2022-11-19T15:32:18.320Z,67.75
2022-11-19T15:35:14.452Z,67.40
2022-11-19T15:38:05.608Z,83.07
2022-11-19T15:40:34.222Z,68.97
2022-11-19T15:43:16.741Z,81.25
2022-11-19T15:45:49.949Z,74.93
2022-11-19T15:48:38.998Z,73.78
2022-11-19T15:51:08.275Z,84.78
2022-11-19T15:53:35.591Z,73.05
2022-11-19T15:56:08.901Z,79.75
2022-11-19T15:58:40.879Z,76.72
2022-11-19T16:01:22.008Z,72.00
2022-11-19T16:03:53.749Z,71.55
2022-11-19T16:06:27.638Z,77.50
2022-11-19T16:08:57.971Z,78.18
2022-11-19T16:11:47.499Z,78.78
2022-11-19T16:14:44.744Z,78.53
2022-11-19T16:17:35.833Z,82.38
2022-11-19T16:20:07.817Z,77.65
2022-11-19T16:22:45.881Z,70.05
2022-11-19T16:25:27.257Z,76.78
2022-11-19T16:28:01.168Z,72.75
2022-11-19T16:30:42.664Z,73.93
2022-11-19T16:33:24.864Z,74.13
2022-11-19T16:35:54.005Z,77.55
2022-11-19T16:38:28.931Z,75.68
2022-11-19T16:41:16.242Z,78.68
2022-11-19T16:43:48.765Z,70.35
2022-11-19T16:46:34.047Z,80.90
2022-11-19T16:49:03.883Z,70.50
2022-11-19T16:51:55.257Z,74.20
2022-11-19T16:54:52.348Z,73.38
2022-11-19T16:57:23.798Z,72.38
2022-11-19T16:59:57.535Z,75.47
2022-11-19T17:02:36.171Z,76.00
2022-11-19T17:05:08.820Z,74.25
2022-11-19T17:07:37.017Z,72.82
2022-11-19T17:10:31.252Z,69.45
2022-11-19T17:13:04.298Z,77.72
2022-11-19T17:15:46.813Z,71.65
2022-11-19T17:18:20.855Z,75.90
2022-11-19T17:20:52.910Z,66.47
2022-11-19T17:23:23.110Z,80.30
2022-11-19T17:25:55.885Z,72.30
2022-11-19T17:28:45.395Z,79.70
2022-11-19T17:31:20.265Z,64.05
2022-11-19T17:34:12.141Z,78.05
2022-11-19T17:36:44.001Z,76.15
2022-11-19T17:39:12.973Z,71.65
2022-11-19T17:41:59.779Z,79.50
2022-11-19T17:44:34.749Z,64.28
2022-11-19T17:47:21.105Z,69.20
2022-11-19T17:49:51.774Z,73.05
2022-11-19T17:52:30.267Z,68.38
2022-11-19T17:55:22.974Z,71.45
2022-11-19T17:57:49.992Z,66.25
2022-11-19T18:00:17.534Z,66.78
2022-11-19T18:02:58.967Z,68.10
2022-11-19T18:05:32.746Z,69.22
2022-11-19T18:07:59.999Z,68.03
2022-11-19T18:10:27.796Z,66.03
2022-11-19T18:12:54.916Z,74.00
2022-11-19T18:15:22.268Z,67.82
2022-11-19T18:17:54.710Z,68.25
2022-11-19T18:20:22.052Z,69.97
2022-11-19T18:22:49.324Z,66.70
2022-11-19T18:25:19.422Z,61.90
2022-11-19T18:27:46.403Z,68.38
2022-11-19T18:30:14.743Z,70.40
2022-11-19T18:32:45.101Z,69.47
2022-11-19T18:35:16.943Z,71.65
2022-11-19T18:37:45.262Z,69.45
2022-11-19T18:40:14.635Z,66.90
2022-11-19T18:43:01.101Z,70.10
2022-11-19T18:45:28.535Z,71.93
2022-11-19T18:47:56.121Z,64.70
2022-11-19T18:50:29.324Z,64.93
2022-11-19T18:52:58.641Z,69.05
2022-11-19T18:55:25.951Z,71.63
2022-11-19T18:57:52.880Z,71.78
2022-11-19T19:00:20.175Z,77.43
2022-11-19T19:02:48.189Z,66.55
2022-11-19T19:05:15.138Z,68.40
2022-11-19T19:07:42.212Z,65.15
2022-11-19T19:10:09.931Z,61.30
2022-11-19T19:12:36.909Z,66.07
2022-11-19T19:15:04.420Z,62.20
2022-11-19T19:17:31.487Z,59.70
2022-11-19T19:19:58.614Z,59.30
2022-11-19T19:22:25.823Z,59.33
2022-11-19T19:24:57.952Z,62.45
2022-11-19T19:27:26.092Z,59.60
2022-11-19T19:29:53.438Z,61.60
2022-11-19T19:32:20.650Z,50.00
2022-11-19T19:34:47.932Z,52.20
2022-11-19T19:37:17.347Z,55.30
2022-11-19T19:39:44.819Z,57.75
2022-11-19T19:42:12.250Z,61.67
2022-11-19T19:44:39.493Z,59.33
2022-11-19T19:47:17.922Z,62.70
2022-11-19T19:49:45.095Z,58.30
2022-11-19T19:52:12.631Z,57.58
2022-11-19T19:54:41.434Z,58.40
2022-11-19T19:57:09.094Z,52.83
2022-11-19T19:59:36.129Z,54.90
2022-11-19T20:02:03.495Z,57.92
2022-11-19T20:04:32.806Z,51.10
2022-11-19T20:07:00.175Z,47.28
2022-11-19T20:09:27.802Z,50.40
2022-11-19T20:11:54.968Z,51.60
2022-11-19T20:14:22.185Z,49.78
2022-11-19T20:16:49.978Z,42.90
2022-11-19T20:19:17.410Z,49.75
2022-11-19T20:21:47.191Z,43.63
2022-11-19T20:24:14.593Z,44.53
2022-11-19T20:26:42.686Z,44.80
2022-11-19T20:29:11.722Z,46.83
2022-11-19T20:31:44.900Z,43.83
2022-11-19T20:34:13.132Z,45.33
2022-11-19T20:36:42.633Z,42.33
2022-11-19T20:39:09.953Z,43.15
2022-11-19T20:41:55.784Z,47.05
2022-11-19T20:44:26.175Z,43.45
2022-11-19T20:47:03.748Z,44.17
2022-11-19T20:49:33.147Z,43.42
2022-11-19T20:52:02.465Z,41.78
2022-11-19T20:54:29.687Z,40.33
2022-11-19T20:56:57.580Z,41.85
2022-11-19T20:59:26.349Z,44.78
2022-11-19T21:01:54.998Z,41.13
2022-11-19T21:04:23.149Z,40.75
2022-11-19T21:06:50.284Z,41.45
2022-11-19T21:09:19.773Z,41.65
2022-11-19T21:11:47.500Z,40.15
2022-11-19T21:14:14.515Z,42.72
2022-11-19T21:16:41.417Z,43.63
2022-11-19T21:19:10.817Z,40.50
2022-11-19T21:21:38.374Z,42.45
2022-11-19T21:24:06.880Z,44.67
2022-11-19T21:26:34.335Z,36.35
2022-11-19T21:29:01.420Z,45.05
2022-11-19T21:31:40.597Z,40.10
2022-11-19T21:34:09.821Z,42.53
2022-11-19T21:36:37.455Z,42.55
2022-11-19T21:39:05.678Z,37.25
2022-11-19T21:41:33.212Z,37.20
2022-11-19T21:44:01.492Z,40.33
2022-11-19T21:46:28.581Z,40.63
2022-11-19T21:48:55.869Z,38.72
2022-11-19T21:51:25.127Z,44.50
2022-11-19T21:53:58.527Z,34.88
2022-11-19T21:56:26.912Z,35.95
2022-11-19T21:58:54.501Z,38.00
2022-11-19T22:01:21.661Z,42.25
2022-11-19T22:03:48.972Z,38.60
2022-11-19T22:06:16.090Z,37.55
2022-11-19T22:08:44.535Z,38.47
2022-11-19T22:11:31.179Z,36.00
2022-11-19T22:14:04.147Z,38.10
2022-11-19T22:16:33.862Z,37.17
2022-11-19T22:19:01.574Z,31.52
2022-11-19T22:21:31.746Z,35.20
2022-11-19T22:23:58.957Z,40.13
2022-11-19T22:26:26.119Z,33.20
2022-11-19T22:28:53.175Z,36.72
2022-11-19T22:31:20.401Z,31.17
2022-11-19T22:33:51.942Z,35.65
2022-11-19T22:36:20.455Z,33.97
2022-11-19T22:38:51.836Z,36.17
2022-11-19T22:41:21.554Z,33.08
2022-11-19T22:43:49.291Z,33.70
2022-11-19T22:46:17.318Z,34.03
2022-11-19T22:48:44.400Z,36.63
2022-11-19T22:51:13.904Z,32.70
2022-11-19T22:53:41.475Z,34.63
2022-11-19T22:56:10.938Z,35.33
2022-11-19T22:58:38.522Z,34.70
2022-11-19T23:01:14.936Z,31.02
2022-11-19T23:03:44.284Z,32.63
2022-11-19T23:06:11.651Z,30.50
2022-11-19T23:08:38.611Z,32.00
2022-11-19T23:11:07.473Z,33.90
2022-11-19T23:13:39.226Z,33.85
2022-11-19T23:16:21.244Z,35.03
2022-11-19T23:18:53.754Z,36.30
2022-11-19T23:21:28.803Z,35.45
2022-11-19T23:23:57.753Z,32.00
2022-11-19T23:26:26.884Z,30.02
2022-11-19T23:28:54.720Z,34.42
2022-11-19T23:31:36.023Z,33.25
2022-11-19T23:34:03.186Z,32.80
2022-11-19T23:36:36.441Z,36.90
2022-11-19T23:39:05.509Z,34.58
2022-11-19T23:41:33.833Z,33.60
2022-11-19T23:44:01.137Z,33.75
2022-11-19T23:46:34.115Z,32.72
2022-11-19T23:49:02.174Z,34.38
2022-11-19T23:51:37.443Z,36.67
2022-11-19T23:54:05.542Z,33.53
2022-11-19T23:56:34.257Z,39.00
2022-11-19T23:59:02.493Z,35.90
